createdAt,value
2022-08-25T00:00:18.591Z,1.70
2022-08-25T00:02:51.620Z,2.60
2022-08-25T00:05:27.652Z,1.73
2022-08-25T00:07:57.313Z,2.20
2022-08-25T00:10:26.569Z,1.90
2022-08-25T00:12:54.334Z,2.40
2022-08-25T00:15:23.506Z,2.60
2022-08-25T00:17:51.448Z,2.20
2022-08-25T00:20:19.699Z,2.27
2022-08-25T00:22:48.810Z,2.07
2022-08-25T00:25:17.002Z,2.57
2022-08-25T00:27:47.449Z,1.50
2022-08-25T00:30:16.541Z,3.00
2022-08-25T00:32:52.515Z,2.20
2022-08-25T00:35:25.988Z,2.40
2022-08-25T00:37:54.246Z,2.20
2022-08-25T00:40:26.915Z,1.90
2022-08-25T00:42:56.202Z,2.40
2022-08-25T00:45:24.310Z,2.10
2022-08-25T00:47:52.051Z,2.20
2022-08-25T00:50:22.773Z,1.90
2022-08-25T00:52:57.522Z,2.63
2022-08-25T00:55:29.651Z,2.10
2022-08-25T00:58:03.840Z,1.83
2022-08-25T01:00:39.240Z,1.80
2022-08-25T01:03:07.875Z,2.00
2022-08-25T01:05:36.410Z,1.60
2022-08-25T01:08:06.990Z,2.67
2022-08-25T01:10:36.186Z,2.10
2022-08-25T01:13:14.599Z,2.60
2022-08-25T01:15:45.288Z,2.50
2022-08-25T01:18:13.146Z,2.03
2022-08-25T01:20:41.074Z,2.20
2022-08-25T01:23:10.665Z,1.90
2022-08-25T01:25:49.759Z,2.27
2022-08-25T01:28:18.233Z,2.50
2022-08-25T01:30:46.151Z,2.70
2022-08-25T01:33:17.114Z,1.60
2022-08-25T01:35:45.353Z,1.97
2022-08-25T01:38:15.034Z,2.20
2022-08-25T01:40:43.667Z,1.70
2022-08-25T01:43:22.674Z,1.80
2022-08-25T01:45:50.553Z,1.63
2022-08-25T01:48:20.458Z,1.70
2022-08-25T01:50:48.236Z,1.60
2022-08-25T01:53:24.051Z,1.98
2022-08-25T01:55:53.019Z,1.60
2022-08-25T01:58:23.506Z,2.10
2022-08-25T02:00:54.203Z,1.83
2022-08-25T02:03:22.103Z,1.90
2022-08-25T02:05:50.063Z,2.25
2022-08-25T02:08:19.562Z,2.13
2022-08-25T02:10:48.091Z,2.00
2022-08-25T02:13:16.601Z,2.37
2022-08-25T02:15:46.911Z,2.70
2022-08-25T02:18:15.270Z,1.77
2022-08-25T02:20:42.970Z,1.80
2022-08-25T02:23:11.586Z,1.90
2022-08-25T02:25:42.175Z,2.60
2022-08-25T02:28:10.779Z,2.35
2022-08-25T02:30:40.096Z,2.17
2022-08-25T02:33:08.712Z,2.47
2022-08-25T02:35:37.254Z,2.40
2022-08-25T02:38:06.101Z,2.60
2022-08-25T02:40:34.585Z,2.40
2022-08-25T02:43:03.967Z,2.25
2022-08-25T02:45:31.754Z,2.10
2022-08-25T02:47:59.537Z,2.00
2022-08-25T02:50:27.428Z,2.25
2022-08-25T02:52:55.140Z,2.25
2022-08-25T02:55:23.712Z,1.98
2022-08-25T02:57:51.526Z,2.00
2022-08-25T03:00:21.046Z,2.08
2022-08-25T03:02:51.012Z,1.80
2022-08-25T03:05:18.876Z,2.30
2022-08-25T03:07:46.644Z,1.95
2022-08-25T03:10:19.562Z,2.55
2022-08-25T03:12:47.798Z,2.20
2022-08-25T03:15:17.996Z,2.60
2022-08-25T03:17:49.251Z,2.33
2022-08-25T03:20:19.225Z,1.85
2022-08-25T03:22:47.041Z,2.13
2022-08-25T03:25:28.724Z,2.08
2022-08-25T03:27:56.581Z,2.10
2022-08-25T03:30:24.354Z,2.28
2022-08-25T03:32:53.494Z,2.88
2022-08-25T03:35:21.437Z,2.50
2022-08-25T03:37:49.151Z,2.25
2022-08-25T03:40:17.866Z,2.75
2022-08-25T03:42:46.726Z,1.75
2022-08-25T03:45:16.410Z,2.75
2022-08-25T03:47:47.678Z,2.25
2022-08-25T03:50:18.829Z,2.50
2022-08-25T03:52:51.094Z,2.95
2022-08-25T03:55:19.224Z,2.55
2022-08-25T03:57:46.948Z,2.53
2022-08-25T04:00:17.785Z,2.05
2022-08-25T04:02:47.457Z,2.00
2022-08-25T04:05:16.552Z,2.33
2022-08-25T04:07:44.443Z,2.80
2022-08-25T04:10:12.315Z,2.15
2022-08-25T04:12:40.514Z,2.42
2022-08-25T04:15:09.973Z,2.40
2022-08-25T04:17:39.578Z,2.05
2022-08-25T04:20:09.335Z,2.65
2022-08-25T04:22:38.980Z,2.40
2022-08-25T04:25:11.255Z,3.10
2022-08-25T04:27:39.053Z,2.40
2022-08-25T04:30:07.670Z,2.15
2022-08-25T04:32:36.601Z,2.85
2022-08-25T04:35:05.262Z,2.78
2022-08-25T04:37:33.747Z,2.38
2022-08-25T04:40:03.704Z,2.33
2022-08-25T04:42:31.787Z,3.08
2022-08-25T04:45:00.145Z,3.10
2022-08-25T04:47:28.177Z,2.50
2022-08-25T04:49:56.900Z,2.47
2022-08-25T04:52:24.670Z,2.38
2022-08-25T04:54:52.600Z,2.50
2022-08-25T04:57:21.646Z,2.33
2022-08-25T04:59:49.507Z,2.05
2022-08-25T05:02:17.299Z,2.53
2022-08-25T05:04:45.042Z,2.38
2022-08-25T05:07:12.765Z,2.88
2022-08-25T05:09:40.733Z,2.80
2022-08-25T05:12:08.918Z,2.75
2022-08-25T05:14:40.379Z,2.75
2022-08-25T05:17:08.709Z,2.55
2022-08-25T05:19:37.080Z,2.20
2022-08-25T05:22:05.026Z,2.70
2022-08-25T05:24:32.821Z,2.47
2022-08-25T05:27:00.582Z,2.60
2022-08-25T05:29:28.418Z,2.38
2022-08-25T05:31:57.521Z,2.70
2022-08-25T05:34:25.621Z,2.70
2022-08-25T05:36:54.399Z,2.72
2022-08-25T05:39:22.446Z,2.00
2022-08-25T05:41:51.637Z,2.55
2022-08-25T05:44:21.395Z,2.30
2022-08-25T05:46:50.711Z,2.58
2022-08-25T05:49:20.406Z,2.03
2022-08-25T05:51:48.696Z,2.97
2022-08-25T05:54:19.970Z,2.37
2022-08-25T05:56:48.907Z,2.70
2022-08-25T05:59:16.726Z,2.40
2022-08-25T06:01:58.450Z,2.00
2022-08-25T06:04:27.896Z,2.37
2022-08-25T06:06:55.776Z,2.90
2022-08-25T06:09:24.133Z,2.27
2022-08-25T06:11:54.933Z,2.50
2022-08-25T06:14:23.675Z,1.77
2022-08-25T06:16:53.364Z,1.80
2022-08-25T06:19:23.016Z,2.20
2022-08-25T06:21:54.712Z,2.27
2022-08-25T06:24:22.442Z,1.60
2022-08-25T06:26:50.727Z,2.03
2022-08-25T06:29:19.265Z,1.83
2022-08-25T06:31:47.283Z,1.83
2022-08-25T06:34:14.995Z,1.77
2022-08-25T06:36:42.918Z,2.23
2022-08-25T06:39:17.784Z,2.03
2022-08-25T06:41:45.521Z,1.90
2022-08-25T06:44:13.863Z,2.30
2022-08-25T06:46:41.595Z,2.70
2022-08-25T06:49:09.317Z,2.30
2022-08-25T06:51:37.251Z,1.80
2022-08-25T06:54:06.410Z,2.53
2022-08-25T06:56:36.764Z,2.30
2022-08-25T06:59:06.026Z,2.97
2022-08-25T07:01:34.894Z,2.40
2022-08-25T07:04:07.644Z,1.83
2022-08-25T07:06:37.980Z,2.10
2022-08-25T07:09:08.090Z,2.30
2022-08-25T07:11:37.134Z,2.10
2022-08-25T07:14:07.150Z,1.87
2022-08-25T07:16:36.192Z,2.03
2022-08-25T07:19:05.843Z,1.60
2022-08-25T07:21:38.206Z,1.77
2022-08-25T07:24:07.671Z,1.70
2022-08-25T07:26:38.817Z,1.80
2022-08-25T07:29:09.978Z,2.23
2022-08-25T07:31:38.267Z,1.40
2022-08-25T07:34:20.090Z,1.50
2022-08-25T07:36:48.021Z,1.63
2022-08-25T07:39:17.417Z,1.30
2022-08-25T07:41:54.897Z,1.63
2022-08-25T07:44:23.548Z,1.53
2022-08-25T07:46:52.030Z,1.60
2022-08-25T07:49:23.746Z,1.80
2022-08-25T07:52:04.463Z,1.57
2022-08-25T07:54:35.232Z,1.80
2022-08-25T07:57:05.380Z,1.70
2022-08-25T07:59:39.283Z,1.40
2022-08-25T08:02:17.812Z,1.20
2022-08-25T08:04:48.310Z,1.13
2022-08-25T08:07:17.890Z,1.20
2022-08-25T08:09:45.842Z,1.57
2022-08-25T08:12:15.254Z,1.50
2022-08-25T08:14:45.067Z,1.33
2022-08-25T08:17:14.153Z,1.37
2022-08-25T08:19:45.260Z,1.20
2022-08-25T08:22:15.457Z,1.50
2022-08-25T08:24:54.094Z,1.37
2022-08-25T08:27:25.391Z,1.70
2022-08-25T08:29:53.557Z,1.83
2022-08-25T08:32:25.268Z,1.10
2022-08-25T08:34:59.340Z,1.57
2022-08-25T08:37:27.946Z,1.23
2022-08-25T08:39:56.071Z,1.43
2022-08-25T08:42:39.571Z,1.43
2022-08-25T08:45:22.045Z,1.70
2022-08-25T08:48:03.690Z,1.47
2022-08-25T08:50:40.406Z,1.73
2022-08-25T08:53:15.037Z,1.23
2022-08-25T08:55:51.881Z,1.63
2022-08-25T08:58:26.422Z,1.73
2022-08-25T09:00:59.026Z,2.10
2022-08-25T09:03:36.661Z,1.43
2022-08-25T09:06:12.418Z,1.17
2022-08-25T09:08:44.733Z,1.30
2022-08-25T09:11:19.899Z,1.80
2022-08-25T09:14:07.507Z,1.50
2022-08-25T09:16:57.073Z,1.97
2022-08-25T09:19:41.868Z,1.80
2022-08-25T09:22:33.400Z,1.20
2022-08-25T09:25:12.038Z,1.40
2022-08-25T09:27:46.576Z,1.33
2022-08-25T09:30:17.791Z,1.37
2022-08-25T09:32:52.623Z,1.53
2022-08-25T09:35:26.232Z,1.40
2022-08-25T09:37:57.615Z,2.03
2022-08-25T09:40:27.334Z,1.10
2022-08-25T09:42:58.687Z,1.57
2022-08-25T09:45:40.467Z,1.47
2022-08-25T09:48:31.102Z,1.50
2022-08-25T09:51:02.846Z,1.70
2022-08-25T09:53:33.938Z,1.37
2022-08-25T09:56:06.664Z,1.50
2022-08-25T09:58:34.743Z,2.20
2022-08-25T10:01:14.191Z,1.10
2022-08-25T10:03:58.322Z,1.20
2022-08-25T10:06:28.466Z,1.30
2022-08-25T10:09:01.785Z,1.60
2022-08-25T10:11:35.475Z,1.20
2022-08-25T10:14:05.893Z,1.70
2022-08-25T10:16:36.152Z,1.37
2022-08-25T10:19:08.587Z,2.07
2022-08-25T10:21:38.106Z,1.70
2022-08-25T10:24:07.438Z,1.53
2022-08-25T10:26:47.527Z,1.37
2022-08-25T10:29:33.274Z,1.60
2022-08-25T10:32:14.445Z,1.50
2022-08-25T10:34:51.410Z,1.83
2022-08-25T10:37:32.929Z,1.97
2022-08-25T10:40:11.122Z,2.33
2022-08-25T10:42:46.508Z,1.73
2022-08-25T10:45:34.420Z,1.60
2022-08-25T10:48:21.062Z,2.03
2022-08-25T10:50:57.161Z,1.57
2022-08-25T10:53:30.235Z,1.70
2022-08-25T10:56:07.451Z,1.50
2022-08-25T10:58:51.011Z,1.40
2022-08-25T11:01:32.931Z,1.50
2022-08-25T11:04:11.313Z,1.13
2022-08-25T11:06:45.999Z,1.73
2022-08-25T11:09:26.131Z,1.77
2022-08-25T11:12:01.711Z,1.63
2022-08-25T11:14:34.829Z,1.70
2022-08-25T11:17:07.167Z,1.77
2022-08-25T11:19:40.759Z,1.70
2022-08-25T11:22:15.581Z,1.60
2022-08-25T11:24:59.315Z,1.43
2022-08-25T11:27:34.778Z,1.37
2022-08-25T11:30:08.351Z,1.43
2022-08-25T11:32:37.725Z,1.50
2022-08-25T11:35:12.275Z,1.97
2022-08-25T11:37:46.929Z,1.80
2022-08-25T11:40:30.487Z,1.43
2022-08-25T11:43:08.110Z,1.87
2022-08-25T11:45:54.527Z,1.33
2022-08-25T11:48:36.179Z,1.60
2022-08-25T11:51:09.488Z,1.60
2022-08-25T11:53:42.137Z,1.30
2022-08-25T11:56:12.613Z,2.17
2022-08-25T11:58:43.809Z,1.67
2022-08-25T12:01:43.514Z,1.40
2022-08-25T12:04:14.768Z,1.40
2022-08-25T12:07:14.510Z,1.53
2022-08-25T12:10:13.866Z,1.33
2022-08-25T12:12:59.835Z,1.67
2022-08-25T12:15:33.213Z,1.30
2022-08-25T12:18:16.939Z,1.47
2022-08-25T12:21:16.433Z,1.53
2022-08-25T12:24:08.702Z,2.20
2022-08-25T12:26:46.167Z,1.83
2022-08-25T12:29:24.790Z,1.53
2022-08-25T12:32:07.131Z,1.60
2022-08-25T12:34:54.963Z,1.47
2022-08-25T12:37:25.201Z,2.13
2022-08-25T12:39:59.613Z,1.73
2022-08-25T12:42:33.431Z,1.90
2022-08-25T12:45:31.098Z,2.13
2022-08-25T12:48:31.492Z,1.90
2022-08-25T12:51:04.193Z,2.60
2022-08-25T12:53:36.969Z,1.73
2022-08-25T12:56:08.714Z,2.03
2022-08-25T12:59:00.475Z,1.93
2022-08-25T13:01:37.533Z,1.77
2022-08-25T13:04:23.958Z,2.20
2022-08-25T13:07:05.954Z,1.80
2022-08-25T13:10:03.519Z,1.70
2022-08-25T13:12:37.829Z,2.10
2022-08-25T13:15:06.243Z,1.90
2022-08-25T13:17:36.242Z,1.57
2022-08-25T13:20:14.200Z,2.00
2022-08-25T13:22:45.974Z,2.47
2022-08-25T13:25:23.021Z,2.20
2022-08-25T13:28:01.412Z,1.83
2022-08-25T13:30:32.163Z,2.67
2022-08-25T13:33:00.822Z,2.20
2022-08-25T13:35:36.639Z,2.17
2022-08-25T13:38:19.806Z,2.10
2022-08-25T13:40:47.843Z,2.57
2022-08-25T13:43:16.362Z,2.13
2022-08-25T13:45:46.380Z,2.27
2022-08-25T13:48:31.887Z,2.50
2022-08-25T13:51:09.862Z,1.80
2022-08-25T13:53:41.349Z,2.07
2022-08-25T13:56:12.716Z,2.17
2022-08-25T13:58:46.467Z,2.60
2022-08-25T14:01:23.581Z,3.30
2022-08-25T14:04:26.395Z,3.00
2022-08-25T14:07:14.993Z,2.10
2022-08-25T14:09:51.536Z,2.97
2022-08-25T14:12:29.744Z,2.37
2022-08-25T14:15:01.670Z,2.23
2022-08-25T14:17:38.749Z,2.70
2022-08-25T14:20:16.383Z,2.53
2022-08-25T14:22:44.260Z,2.53
2022-08-25T14:25:13.803Z,2.40
2022-08-25T14:28:03.701Z,2.10
2022-08-25T14:30:34.887Z,2.53
2022-08-25T14:33:04.451Z,2.40
2022-08-25T14:35:32.594Z,2.17
2022-08-25T14:38:09.800Z,2.10
2022-08-25T14:40:39.725Z,2.73
2022-08-25T14:43:09.625Z,2.30
2022-08-25T14:45:40.912Z,2.30
2022-08-25T14:48:10.711Z,2.60
2022-08-25T14:50:41.078Z,2.67
2022-08-25T14:53:11.170Z,2.30
2022-08-25T14:55:40.263Z,2.33
2022-08-25T14:58:09.167Z,2.97
2022-08-25T15:00:41.078Z,2.47
2022-08-25T15:03:10.226Z,2.70
2022-08-25T15:05:38.458Z,2.17
2022-08-25T15:08:21.818Z,2.53
2022-08-25T15:10:51.002Z,2.53
2022-08-25T15:13:18.829Z,2.37
2022-08-25T15:15:52.963Z,2.23
2022-08-25T15:18:21.831Z,2.50
2022-08-25T15:20:50.038Z,2.60
2022-08-25T15:23:18.350Z,2.63
2022-08-25T15:25:47.576Z,2.17
2022-08-25T15:28:17.638Z,2.00
2022-08-25T15:30:49.429Z,1.90
2022-08-25T15:33:17.224Z,2.30
2022-08-25T15:35:45.081Z,1.90
2022-08-25T15:38:13.534Z,2.37
2022-08-25T15:40:41.398Z,1.67
2022-08-25T15:43:09.114Z,1.80
2022-08-25T15:45:38.857Z,2.50
2022-08-25T15:48:09.451Z,2.60
2022-08-25T15:50:38.723Z,2.67
2022-08-25T15:53:08.302Z,2.27
2022-08-25T15:55:40.030Z,1.90
2022-08-25T15:58:08.861Z,2.63
2022-08-25T16:00:38.192Z,1.83
2022-08-25T16:03:08.058Z,2.23
2022-08-25T16:05:36.662Z,2.40
2022-08-25T16:08:05.752Z,1.97
2022-08-25T16:10:38.530Z,2.03
2022-08-25T16:13:07.371Z,2.00
2022-08-25T16:15:38.523Z,2.50
2022-08-25T16:18:07.030Z,2.00
2022-08-25T16:20:36.553Z,2.43
2022-08-25T16:23:05.278Z,2.57
2022-08-25T16:25:33.283Z,2.07
2022-08-25T16:28:04.471Z,1.63
2022-08-25T16:30:32.151Z,1.60
2022-08-25T16:33:01.446Z,2.00
2022-08-25T16:35:31.339Z,1.80
2022-08-25T16:38:00.277Z,1.90
2022-08-25T16:40:31.752Z,2.13
2022-08-25T16:42:59.721Z,2.33
2022-08-25T16:45:27.530Z,2.13
2022-08-25T16:47:55.353Z,2.23
2022-08-25T16:50:24.950Z,2.00
2022-08-25T16:53:07.778Z,2.30
2022-08-25T16:55:46.724Z,2.17
2022-08-25T16:58:15.578Z,2.30
2022-08-25T17:00:45.055Z,1.93
2022-08-25T17:03:13.011Z,2.07
2022-08-25T17:05:43.729Z,2.37
2022-08-25T17:08:26.070Z,2.70
2022-08-25T17:10:54.526Z,4.00
2022-08-25T17:13:22.808Z,2.53
2022-08-25T17:15:52.473Z,1.87
2022-08-25T17:18:21.167Z,1.80
2022-08-25T17:20:59.618Z,2.10
2022-08-25T17:23:27.542Z,2.27
2022-08-25T17:25:55.453Z,2.10
2022-08-25T17:28:30.422Z,2.60
2022-08-25T17:30:59.741Z,2.17
2022-08-25T17:33:28.184Z,2.80
2022-08-25T17:35:58.258Z,1.60
2022-08-25T17:38:28.458Z,2.13
2022-08-25T17:40:58.849Z,2.23
2022-08-25T17:43:28.457Z,2.03
2022-08-25T17:45:57.663Z,1.90
2022-08-25T17:48:26.917Z,2.30
2022-08-25T17:50:55.232Z,2.50
2022-08-25T17:53:24.702Z,2.30
2022-08-25T17:55:59.004Z,2.47
2022-08-25T17:58:28.935Z,2.07
2022-08-25T18:00:56.775Z,2.53
2022-08-25T18:03:26.425Z,2.00
2022-08-25T18:05:55.408Z,2.03
2022-08-25T18:08:32.094Z,2.50
2022-08-25T18:11:04.522Z,2.37
2022-08-25T18:13:32.380Z,2.00
2022-08-25T18:16:00.730Z,2.60
2022-08-25T18:18:28.874Z,2.53
2022-08-25T18:20:56.669Z,2.20
2022-08-25T18:23:26.237Z,2.63
2022-08-25T18:26:00.905Z,2.97
2022-08-25T18:28:29.395Z,2.80
2022-08-25T18:30:57.657Z,3.57
2022-08-25T18:33:29.923Z,3.00
2022-08-25T18:35:58.423Z,4.00
2022-08-25T18:38:41.465Z,5.80
2022-08-25T18:41:11.585Z,5.70
2022-08-25T18:43:39.838Z,4.97
2022-08-25T18:46:08.323Z,5.80
2022-08-25T18:48:38.311Z,6.83
2022-08-25T18:51:10.562Z,5.53
2022-08-25T18:53:50.366Z,7.10
2022-08-25T18:56:18.879Z,6.50
2022-08-25T18:58:50.650Z,4.73
2022-08-25T19:01:22.781Z,5.47
2022-08-25T19:03:52.470Z,3.27
2022-08-25T19:06:20.993Z,4.40
2022-08-25T19:08:50.536Z,3.20
2022-08-25T19:11:22.332Z,2.80
2022-08-25T19:13:51.554Z,2.40
2022-08-25T19:16:32.797Z,3.13
2022-08-25T19:19:03.862Z,3.80
2022-08-25T19:21:31.944Z,2.63
2022-08-25T19:24:03.171Z,2.83
2022-08-25T19:26:34.606Z,2.30
2022-08-25T19:29:04.842Z,2.70
2022-08-25T19:31:39.311Z,2.57
2022-08-25T19:34:07.954Z,2.10
2022-08-25T19:36:35.852Z,2.53
2022-08-25T19:39:07.359Z,2.50
2022-08-25T19:41:35.449Z,2.90
2022-08-25T19:44:03.752Z,2.47
2022-08-25T19:46:35.710Z,2.80
2022-08-25T19:49:08.136Z,2.33
2022-08-25T19:51:45.848Z,2.77
2022-08-25T19:54:17.931Z,2.70
2022-08-25T19:56:54.568Z,2.77
2022-08-25T19:59:40.680Z,2.63
2022-08-25T20:02:16.429Z,2.27
2022-08-25T20:04:49.142Z,2.30
2022-08-25T20:07:19.040Z,2.43
2022-08-25T20:09:48.622Z,2.20
2022-08-25T20:12:17.581Z,2.47
2022-08-25T20:14:47.158Z,2.70
2022-08-25T20:17:24.342Z,2.60
2022-08-25T20:19:55.453Z,3.20
2022-08-25T20:22:26.234Z,2.30
2022-08-25T20:24:57.932Z,2.63
2022-08-25T20:27:30.945Z,2.30
2022-08-25T20:30:02.618Z,2.43
2022-08-25T20:32:32.378Z,2.50
2022-08-25T20:35:00.921Z,2.73
2022-08-25T20:37:28.913Z,3.03
2022-08-25T20:39:58.034Z,2.80
2022-08-25T20:42:25.810Z,2.60
2022-08-25T20:44:54.527Z,2.53
2022-08-25T20:47:22.545Z,2.93
2022-08-25T20:49:50.485Z,2.77
2022-08-25T20:52:19.255Z,2.87
2022-08-25T20:54:49.610Z,3.00
2022-08-25T20:57:25.809Z,3.10
2022-08-25T20:59:54.879Z,3.10
2022-08-25T21:02:24.166Z,2.60
2022-08-25T21:04:54.702Z,2.73
2022-08-25T21:07:25.208Z,2.63
2022-08-25T21:09:53.792Z,3.47
2022-08-25T21:12:23.732Z,3.40
2022-08-25T21:14:51.742Z,3.50
2022-08-25T21:17:20.462Z,3.03
2022-08-25T21:22:23.826Z,3.40
2022-08-25T21:24:52.235Z,3.33
2022-08-25T21:27:21.723Z,2.77
2022-08-25T21:29:54.838Z,3.00
2022-08-25T21:32:23.831Z,2.90
2022-08-25T21:34:53.405Z,3.57
2022-08-25T21:37:21.582Z,3.07
2022-08-25T21:39:49.377Z,3.53
2022-08-25T21:42:17.218Z,3.57
2022-08-25T21:44:46.211Z,3.00
2022-08-25T21:47:13.931Z,2.80
2022-08-25T21:49:43.530Z,3.20
2022-08-25T21:52:11.372Z,2.90
2022-08-25T21:54:39.227Z,3.20
2022-08-25T21:57:07.826Z,2.73
2022-08-25T21:59:40.235Z,2.90
2022-08-25T22:02:11.550Z,3.23
2022-08-25T22:04:39.940Z,3.60
2022-08-25T22:07:08.278Z,3.00
2022-08-25T22:09:36.503Z,2.60
2022-08-25T22:12:05.566Z,3.50
2022-08-25T22:14:33.600Z,3.20
2022-08-25T22:17:02.372Z,3.90
2022-08-25T22:19:33.247Z,3.20
2022-08-25T22:22:02.226Z,2.93
2022-08-25T22:24:30.070Z,3.47
2022-08-25T22:26:58.428Z,3.00
2022-08-25T22:29:26.471Z,2.90
2022-08-25T22:31:57.686Z,3.33
2022-08-25T22:34:30.230Z,2.53
2022-08-25T22:37:01.331Z,2.80
2022-08-25T22:39:29.610Z,3.23
2022-08-25T22:41:58.415Z,3.73
2022-08-25T22:44:27.113Z,3.03
2022-08-25T22:46:54.830Z,3.13
2022-08-25T22:49:22.515Z,3.83
2022-08-25T22:51:50.908Z,3.00
2022-08-25T22:54:20.057Z,3.33
2022-08-25T22:56:47.791Z,3.87
2022-08-25T22:59:16.013Z,3.40
2022-08-25T23:01:45.132Z,2.80
2022-08-25T23:04:14.467Z,3.80
2022-08-25T23:06:42.821Z,3.80
2022-08-25T23:09:11.714Z,3.47
2022-08-25T23:11:41.040Z,3.00
2022-08-25T23:14:11.059Z,3.60
2022-08-25T23:16:39.749Z,3.93
2022-08-25T23:19:10.219Z,3.87
2022-08-25T23:21:52.026Z,3.83
2022-08-25T23:24:29.335Z,3.23
2022-08-25T23:27:01.646Z,3.23
2022-08-25T23:29:30.962Z,3.40
2022-08-25T23:31:59.602Z,3.93
2022-08-25T23:34:28.608Z,3.67
2022-08-25T23:36:57.070Z,3.83
2022-08-25T23:39:24.929Z,4.17
2022-08-25T23:41:52.972Z,3.63
2022-08-25T23:44:23.316Z,4.13
2022-08-25T23:46:54.022Z,4.10
2022-08-25T23:49:24.687Z,3.60
2022-08-25T23:51:54.926Z,3.60
2022-08-25T23:54:23.016Z,4.50
2022-08-25T23:56:59.250Z,3.97
2022-08-25T23:59:28.238Z,4.03
